Forside
METAR-TAF:

METAR-TAF

Lufthavne :

Lansing Capital Region International Airport

Lansing, Michigan, USA

Breddekreds: 42-46-49N, længdekreds: 084-34-44W, højde: 262 m

Aktuelle vejr

Denne rapport blev lavet for 30 minutter siden, kl. 17:53 UTC
Vind 14 kt fra sydsydvest
Temperatur 7°C
Fugtighed 49%
Tryk 1013 hPa
Sigt: 16.1 km
skyfri

METAR: KLAN 231753Z 21014KT 10SM CLR 07/M03 A2991 RMK AO2 SLP136 T00721028 10078 21006 58021

Tid: 13:23 (18:23 UTC)

Vejrudsigter

Denne rapport blev lavet for 43 minutter siden, kl. 17:40 UTC
Foreløbig gælder fra 23 på 18 UTC til 24 på 18 UTC
Vind 12 kt fra sydsydvest
Sigt: 10 km
skyfri
Fra 24 på 0700 UTC
Vind 5 kt fra vestsydvest
Sigt: 10 km
Brudte skyer i en højde af 5000 ft
Fra 24 på 0900 UTC
Vind 3 kt fra varierende retninger
Sigt: 10 km
Overskyet i en højde af 2500 ft

TAF: KLAN 231740Z 2318/2418 20012KT P6SM SKC FM240700 25005KT P6SM BKN050 FM240900 VRB03KT P6SM OVC025

Vejrobservationer og prognoser fra mere end 4000 lufthavne (METAR og TAF).

De gule og røde prikker repræsenterer de meteorologiske stationer.

Flyt musen over at se navnet på stationen.

Så klik over at se vejr observationer og prognoser.

At skifte det kort: Klik på de grønne knapper med et sort kors for at zoome ind; på den grønne knap med en bindestreg for at zoome ud; eller på de grønne pile for tilstødende kort.


METAR-TAF: